Time;durP1;ratioP1;P1;durP2;ratioP2;P2;SDS_P1;SDS_P2;PMS_P1;PMS_P2;Temp;Humidity;BMP_temperature;BMP_pressure;BME280_temperature;BME280_humidity;BME280_pressure;Samples;Min_cycle;Max_cycle;Signal;HPM_P1;HPM_P2
2022/01/18 00:00:42;;;;;;;43.35;19.27;;;;;;;;;;5080832;28;20228;-79
2022/01/18 00:03:08;;;;;;;42.55;20.63;;;;;;;;;;5083545;28;20130;-79
2022/01/18 00:05:33;;;;;;;42.08;21.13;;;;;;;;;;5076904;28;20024;-77
2022/01/18 00:07:59;;;;;;;45.70;20.85;;;;;;;;;;5078151;28;20346;-77
2022/01/18 00:10:28;;;;;;;40.42;19.58;;;;;;;;;;5056117;28;20021;-77
2022/01/18 00:23:22;;;;;;;41.67;18.52;;;;;;;;;;5068342;28;20029;-78
2022/01/18 00:25:52;;;;;;;38.35;19.20;;;;;;;;;;5073152;28;20051;-77
2022/01/18 00:28:18;;;;;;;42.70;20.10;;;;;;;;;;5070679;28;20025;-79
2022/01/18 00:36:10;;;;;;;45.00;19.80;;;;;;;;;;5060814;28;20013;-78
2022/01/18 00:38:47;;;;;;;38.17;19.10;;;;;;;;;;5072920;28;20316;-78
2022/01/18 00:41:14;;;;;;;38.80;19.52;;;;;;;;;;5070132;28;20017;-77
2022/01/18 00:43:40;;;;;;;41.40;18.95;;;;;;;;;;5070007;28;20044;-77
2022/01/18 00:46:06;;;;;;;40.00;18.27;;;;;;;;;;5073127;28;20095;-77
2022/01/18 00:48:32;;;;;;;43.83;20.00;;;;;;;;;;5074585;28;20031;-78
2022/01/18 00:50:58;;;;;;;41.60;20.77;;;;;;;;;;5069625;28;20229;-77
2022/01/18 00:53:25;;;;;;;47.83;20.83;;;;;;;;;;5076297;28;20028;-81
2022/01/18 00:56:05;;;;;;;43.10;19.58;;;;;;;;;;5071685;28;20020;-77
2022/01/18 00:58:31;;;;;;;41.10;20.05;;;;;;;;;;5071829;28;20227;-77
2022/01/18 01:00:56;;;;;;;43.67;18.80;;;;;;;;;;5073311;28;20041;-77
2022/01/18 01:03:22;;;;;;;41.75;21.10;;;;;;;;;;5068732;28;20040;-77
2022/01/18 01:05:47;;;;;;;44.50;20.00;;;;;;;;;;5078136;28;20087;-77
2022/01/18 01:08:13;;;;;;;42.30;19.75;;;;;;;;;;5074648;28;20074;-77
2022/01/18 01:10:38;;;;;;;38.03;18.58;;;;;;;;;;5075063;28;20085;-77
2022/01/18 01:13:04;;;;;;;36.78;17.35;;;;;;;;;;5074214;28;20040;-79
2022/01/18 01:15:33;;;;;;;35.03;17.77;;;;;;;;;;5057626;28;20029;-77
2022/01/18 01:18:18;;;;;;;34.58;17.58;;;;;;;;;;5065470;28;20021;-77
2022/01/18 01:34:41;;;;;;;38.08;18.80;;;;;;;;;;5079761;28;20062;-78
2022/01/18 01:45:19;;;;;;;38.08;18.00;;;;;;;;;;5076497;28;20035;-78
2022/01/18 01:47:50;;;;;;;40.05;17.90;;;;;;;;;;5070729;28;20098;-78
2022/01/18 01:50:19;;;;;;;39.33;17.67;;;;;;;;;;5076843;28;20108;-77
2022/01/18 01:52:49;;;;;;;41.60;18.75;;;;;;;;;;5075020;28;20017;-77
2022/01/18 01:55:17;;;;;;;39.95;18.58;;;;;;;;;;5079333;28;20064;-77
2022/01/18 01:57:42;;;;;;;40.55;20.35;;;;;;;;;;5079159;28;20100;-77
2022/01/18 02:00:15;;;;;;;46.53;21.35;;;;;;;;;;5083108;28;20033;-77
2022/01/18 02:02:41;;;;;;;46.28;21.85;;;;;;;;;;5084880;28;20142;-82
2022/01/18 02:05:08;;;;;;;43.95;20.73;;;;;;;;;;5082216;28;20353;-77
2022/01/18 02:07:33;;;;;;;45.92;20.92;;;;;;;;;;5081850;28;20047;-78
2022/01/18 02:09:59;;;;;;;40.58;14.65;;;;;;;;;;5075644;28;20328;-77
2022/01/18 02:12:24;;;;;;;45.13;14.90;;;;;;;;;;5078449;28;20033;-77
2022/01/18 02:14:58;;;;;;;33.40;13.18;;;;;;;;;;5070340;28;20025;-77
2022/01/18 02:22:54;;;;;;;36.10;13.25;;;;;;;;;;5081200;28;20102;-78
2022/01/18 02:25:19;;;;;;;37.97;13.45;;;;;;;;;;5083166;28;20024;-77
2022/01/18 02:27:45;;;;;;;48.72;13.88;;;;;;;;;;5081572;28;20374;-77
2022/01/18 02:30:11;;;;;;;37.80;13.77;;;;;;;;;;5082652;28;20025;-77
2022/01/18 02:32:36;;;;;;;35.50;13.52;;;;;;;;;;5065082;28;20107;-78
2022/01/18 02:35:03;;;;;;;48.58;14.40;;;;;;;;;;5082840;28;20045;-79
2022/01/18 02:37:28;;;;;;;33.78;11.77;;;;;;;;;;5088670;28;20029;-77
2022/01/18 02:39:54;;;;;;;39.85;11.48;;;;;;;;;;5082583;28;20048;-78
2022/01/18 02:42:24;;;;;;;40.75;13.10;;;;;;;;;;5086290;28;20055;-77
2022/01/18 02:44:52;;;;;;;39.78;12.77;;;;;;;;;;5084556;28;20032;-78
2022/01/18 02:47:22;;;;;;;41.70;13.75;;;;;;;;;;5076702;28;20025;-78
2022/01/18 02:49:49;;;;;;;43.80;14.10;;;;;;;;;;5072624;28;20100;-78
2022/01/18 02:52:15;;;;;;;36.97;12.88;;;;;;;;;;5052024;28;20043;-78
2022/01/18 02:54:41;;;;;;;37.35;13.52;;;;;;;;;;5073647;28;20046;-78
2022/01/18 02:57:12;;;;;;;41.80;13.88;;;;;;;;;;5050544;28;20051;-78
2022/01/18 03:05:03;;;;;;;39.00;13.07;;;;;;;;;;5069502;28;20359;-78
2022/01/18 03:07:28;;;;;;;39.92;12.52;;;;;;;;;;5069205;28;20025;-78
2022/01/18 03:09:54;;;;;;;34.72;12.50;;;;;;;;;;5073535;28;20017;-78
2022/01/18 03:12:19;;;;;;;41.30;14.30;;;;;;;;;;5067752;28;20028;-78
2022/01/18 03:14:44;;;;;;;37.22;12.65;;;;;;;;;;5067614;28;20144;-78
2022/01/18 03:17:10;;;;;;;32.47;12.82;;;;;;;;;;5065312;28;20029;-78
2022/01/18 03:19:35;;;;;;;34.78;13.07;;;;;;;;;;5068126;28;20025;-78
2022/01/18 03:22:01;;;;;;;41.25;14.30;;;;;;;;;;5066704;28;20228;-78
2022/01/18 03:29:36;;;;;;;46.22;14.20;;;;;;;;;;5068699;28;20261;-80
2022/01/18 03:32:04;;;;;;;40.63;13.15;;;;;;;;;;5067944;28;20036;-79
2022/01/18 03:34:29;;;;;;;48.25;13.52;;;;;;;;;;5068419;28;20075;-80
2022/01/18 03:36:54;;;;;;;41.33;14.48;;;;;;;;;;5067260;28;20017;-78
2022/01/18 03:39:20;;;;;;;45.15;13.82;;;;;;;;;;5066336;28;20028;-81
2022/01/18 03:41:53;;;;;;;43.10;14.32;;;;;;;;;;5064813;28;20020;-81
2022/01/18 03:44:19;;;;;;;44.10;14.10;;;;;;;;;;5067500;28;20311;-78
2022/01/18 03:46:45;;;;;;;38.83;13.35;;;;;;;;;;5067395;28;20017;-78
2022/01/18 03:49:10;;;;;;;45.10;13.55;;;;;;;;;;5065171;28;20035;-78
2022/01/18 03:51:35;;;;;;;36.97;13.48;;;;;;;;;;5055555;28;20040;-78
2022/01/18 03:54:01;;;;;;;41.55;14.18;;;;;;;;;;5071615;28;20021;-78
2022/01/18 03:56:27;;;;;;;42.75;13.95;;;;;;;;;;5069825;28;20054;-78
2022/01/18 03:58:52;;;;;;;45.30;14.70;;;;;;;;;;5053185;28;20040;-78
2022/01/18 04:01:18;;;;;;;47.15;14.90;;;;;;;;;;5072271;28;20346;-78
2022/01/18 04:03:43;;;;;;;39.65;13.63;;;;;;;;;;5068841;28;20032;-78
2022/01/18 04:06:08;;;;;;;45.00;14.27;;;;;;;;;;5073265;28;20047;-78
2022/01/18 04:08:34;;;;;;;46.03;14.85;;;;;;;;;;5064337;28;20024;-78
2022/01/18 04:10:59;;;;;;;38.58;13.23;;;;;;;;;;5067518;28;20048;-78
2022/01/18 04:13:25;;;;;;;42.78;14.23;;;;;;;;;;5074121;28;20320;-77
2022/01/18 04:15:50;;;;;;;41.50;13.63;;;;;;;;;;5078995;28;20017;-77
2022/01/18 04:28:59;;;;;;;42.95;13.73;;;;;;;;;;5080472;28;20193;-77
2022/01/18 04:31:26;;;;;;;46.17;14.27;;;;;;;;;;5075103;28;20051;-78
2022/01/18 04:33:51;;;;;;;44.20;14.40;;;;;;;;;;5075484;28;20139;-78
2022/01/18 04:36:17;;;;;;;49.45;14.10;;;;;;;;;;5070359;28;20032;-78
2022/01/18 04:38:44;;;;;;;47.95;13.82;;;;;;;;;;5075069;28;20032;-78
2022/01/18 04:41:13;;;;;;;53.15;15.55;;;;;;;;;;5080534;28;20024;-77
2022/01/18 04:49:08;;;;;;;50.85;15.35;;;;;;;;;;5069992;28;20023;-77
2022/01/18 04:51:34;;;;;;;50.80;14.35;;;;;;;;;;5080494;28;20028;-78
2022/01/18 04:54:01;;;;;;;49.53;14.43;;;;;;;;;;5080400;28;20082;-77
2022/01/18 04:59:06;;;;;;;55.10;15.88;;;;;;;;;;5074374;28;20028;-77
2022/01/18 05:01:33;;;;;;;65.10;16.63;;;;;;;;;;5080770;28;20270;-77
2022/01/18 05:03:58;;;;;;;51.80;14.95;;;;;;;;;;5080235;28;20017;-77
2022/01/18 05:06:24;;;;;;;49.85;15.88;;;;;;;;;;5073639;28;20318;-77
2022/01/18 05:08:49;;;;;;;41.22;14.75;;;;;;;;;;5074143;28;20067;-77
2022/01/18 05:11:18;;;;;;;47.65;15.57;;;;;;;;;;5074268;28;20452;-77
2022/01/18 05:21:31;;;;;;;55.53;15.93;;;;;;;;;;5068484;28;20070;-77
2022/01/18 05:23:56;;;;;;;50.47;14.65;;;;;;;;;;5073317;28;20056;-77
2022/01/18 05:26:23;;;;;;;50.20;14.63;;;;;;;;;;5072715;28;20220;-77
2022/01/18 05:28:49;;;;;;;49.03;14.93;;;;;;;;;;5080175;28;20036;-77
2022/01/18 05:31:14;;;;;;;51.83;16.23;;;;;;;;;;5070789;28;20090;-77
2022/01/18 05:33:42;;;;;;;47.47;14.65;;;;;;;;;;5061420;28;20083;-77
2022/01/18 05:36:08;;;;;;;49.80;13.45;;;;;;;;;;5062725;28;20284;-77
2022/01/18 05:38:35;;;;;;;48.05;15.07;;;;;;;;;;5076670;28;20029;-78
2022/01/18 05:41:01;;;;;;;43.83;13.88;;;;;;;;;;5074101;28;20024;-77
2022/01/18 05:43:26;;;;;;;44.30;14.05;;;;;;;;;;5079003;28;20028;-76
2022/01/18 05:45:52;;;;;;;44.33;13.52;;;;;;;;;;5079804;28;20029;-77
2022/01/18 05:48:17;;;;;;;51.05;14.52;;;;;;;;;;5068485;28;20053;-78
2022/01/18 05:50:43;;;;;;;36.78;11.85;;;;;;;;;;5081341;28;20074;-77
2022/01/18 05:53:08;;;;;;;41.50;13.25;;;;;;;;;;5057642;28;20126;-84
2022/01/18 05:55:33;;;;;;;45.67;14.18;;;;;;;;;;5075521;28;20036;-77
2022/01/18 05:57:59;;;;;;;46.45;14.30;;;;;;;;;;5076362;28;20028;-77
2022/01/18 06:00:26;;;;;;;45.63;13.50;;;;;;;;;;5060854;28;20033;-78
2022/01/18 06:08:09;;;;;;;48.72;14.43;;;;;;;;;;5078436;28;20028;-77
2022/01/18 06:10:35;;;;;;;52.00;14.70;;;;;;;;;;5075884;28;20319;-77
2022/01/18 06:13:02;;;;;;;42.40;13.85;;;;;;;;;;5074845;28;20367;-78
2022/01/18 06:15:31;;;;;;;43.47;12.85;;;;;;;;;;5071581;28;20020;-77
2022/01/18 06:17:57;;;;;;;45.30;14.43;;;;;;;;;;5071037;28;20021;-89
2022/01/18 06:20:23;;;;;;;42.17;13.63;;;;;;;;;;5078686;28;20028;-81
2022/01/18 06:22:52;;;;;;;47.55;14.23;;;;;;;;;;5079727;28;20021;-78
2022/01/18 06:25:21;;;;;;;43.05;13.02;;;;;;;;;;5058723;28;20310;-76
2022/01/18 06:27:50;;;;;;;43.08;14.10;;;;;;;;;;5076144;28;20028;-76
2022/01/18 06:30:15;;;;;;;49.85;13.07;;;;;;;;;;5086635;28;20064;-78
2022/01/18 06:32:43;;;;;;;42.85;13.88;;;;;;;;;;5076611;28;20074;-86
2022/01/18 06:35:10;;;;;;;49.92;14.48;;;;;;;;;;5081000;28;20044;-79
2022/01/18 06:37:37;;;;;;;43.65;13.38;;;;;;;;;;5074584;28;20312;-75
2022/01/18 06:40:04;;;;;;;53.78;14.85;;;;;;;;;;5063429;28;20040;-76
2022/01/18 06:42:30;;;;;;;56.40;14.48;;;;;;;;;;5080988;28;20104;-84
2022/01/18 06:44:56;;;;;;;47.40;14.93;;;;;;;;;;5083308;28;20052;-75
2022/01/18 06:47:22;;;;;;;50.42;15.93;;;;;;;;;;5073154;28;20032;-78
2022/01/18 06:49:47;;;;;;;50.75;15.20;;;;;;;;;;5075389;28;20027;-76
2022/01/18 06:52:13;;;;;;;45.17;15.15;;;;;;;;;;5069389;28;20349;-77
2022/01/18 06:54:38;;;;;;;55.22;15.85;;;;;;;;;;5071221;28;20029;-75
2022/01/18 06:57:04;;;;;;;43.90;13.40;;;;;;;;;;5085772;28;20020;-75
2022/01/18 06:59:30;;;;;;;55.38;15.55;;;;;;;;;;5080137;28;20097;-74
2022/01/18 07:01:55;;;;;;;47.03;14.45;;;;;;;;;;5076095;28;20033;-75
2022/01/18 07:04:21;;;;;;;44.42;13.32;;;;;;;;;;5071352;28;20028;-74
2022/01/18 07:06:47;;;;;;;34.50;13.00;;;;;;;;;;5075333;28;20240;-76
2022/01/18 07:09:15;;;;;;;39.90;13.00;;;;;;;;;;5075320;28;20399;-76
2022/01/18 07:11:41;;;;;;;44.97;12.85;;;;;;;;;;5071252;28;20058;-76
2022/01/18 07:14:06;;;;;;;43.10;13.30;;;;;;;;;;5070629;28;20024;-75
2022/01/18 07:16:32;;;;;;;40.85;13.23;;;;;;;;;;5075241;28;20108;-76
2022/01/18 07:18:57;;;;;;;44.88;13.95;;;;;;;;;;5079616;28;20024;-75
2022/01/18 07:21:23;;;;;;;45.50;13.35;;;;;;;;;;5071068;28;20028;-76
2022/01/18 07:23:51;;;;;;;47.50;13.48;;;;;;;;;;5061932;28;20362;-75
2022/01/18 07:26:17;;;;;;;40.22;13.65;;;;;;;;;;5073379;28;20074;-74
2022/01/18 07:28:42;;;;;;;39.53;13.20;;;;;;;;;;5085270;28;20020;-76
2022/01/18 07:31:07;;;;;;;41.25;13.10;;;;;;;;;;5067519;28;21589;-79
2022/01/18 07:33:36;;;;;;;45.70;13.57;;;;;;;;;;5077308;28;20025;-80
2022/01/18 07:36:01;;;;;;;42.05;13.55;;;;;;;;;;5058538;28;20323;-77
2022/01/18 07:38:27;;;;;;;46.60;13.95;;;;;;;;;;5074539;28;20035;-78
2022/01/18 07:40:53;;;;;;;42.72;12.80;;;;;;;;;;5072153;28;20043;-77
2022/01/18 07:43:19;;;;;;;44.10;12.77;;;;;;;;;;5074554;28;20021;-77
2022/01/18 07:45:46;;;;;;;39.42;13.77;;;;;;;;;;5074780;28;20342;-77
2022/01/18 07:48:12;;;;;;;43.83;12.65;;;;;;;;;;5066395;28;20261;-76
2022/01/18 07:50:39;;;;;;;37.75;13.25;;;;;;;;;;5063950;28;20025;-78
2022/01/18 07:53:04;;;;;;;39.40;13.50;;;;;;;;;;5070122;28;20031;-77
2022/01/18 07:55:30;;;;;;;37.63;12.00;;;;;;;;;;5063927;28;20021;-77
2022/01/18 07:57:57;;;;;;;33.95;12.25;;;;;;;;;;5064668;28;20016;-77
2022/01/18 08:00:23;;;;;;;34.95;12.30;;;;;;;;;;5066084;28;20031;-77
2022/01/18 08:02:48;;;;;;;35.00;12.50;;;;;;;;;;5068326;28;20025;-77
2022/01/18 08:05:14;;;;;;;40.40;13.95;;;;;;;;;;5069538;28;20096;-77
2022/01/18 08:07:41;;;;;;;45.03;13.15;;;;;;;;;;5050805;28;20036;-77
2022/01/18 08:10:10;;;;;;;38.33;13.57;;;;;;;;;;5066862;28;20028;-77
2022/01/18 08:12:36;;;;;;;40.35;14.13;;;;;;;;;;5080726;28;20024;-77
2022/01/18 08:15:12;;;;;;;37.67;13.05;;;;;;;;;;5070151;28;20039;-76
2022/01/18 08:17:37;;;;;;;34.63;12.35;;;;;;;;;;5065914;28;20020;-77
2022/01/18 08:20:03;;;;;;;46.78;12.98;;;;;;;;;;5063957;28;20033;-78
2022/01/18 08:22:28;;;;;;;45.95;13.90;;;;;;;;;;5063657;28;20383;-76
2022/01/18 08:24:54;;;;;;;40.13;12.93;;;;;;;;;;5066060;28;20067;-76
2022/01/18 08:27:21;;;;;;;37.90;12.13;;;;;;;;;;5067175;28;20031;-77
2022/01/18 08:29:47;;;;;;;38.22;12.23;;;;;;;;;;5065439;28;20025;-75
2022/01/18 08:32:12;;;;;;;32.65;12.15;;;;;;;;;;5067539;28;20055;-77
2022/01/18 08:34:37;;;;;;;36.22;13.02;;;;;;;;;;5067564;28;20044;-76
2022/01/18 08:37:03;;;;;;;36.40;13.23;;;;;;;;;;5061935;28;20064;-81
2022/01/18 08:39:28;;;;;;;37.42;12.18;;;;;;;;;;5065802;28;20037;-82
2022/01/18 08:41:55;;;;;;;33.63;12.48;;;;;;;;;;5074733;28;20048;-83
2022/01/18 08:44:20;;;;;;;41.97;13.15;;;;;;;;;;5076992;28;20239;-83
2022/01/18 08:46:46;;;;;;;46.03;15.27;;;;;;;;;;5073956;28;20055;-83
2022/01/18 08:49:11;;;;;;;40.60;15.27;;;;;;;;;;5073893;28;20119;-82
2022/01/18 08:51:37;;;;;;;47.00;14.20;;;;;;;;;;5075114;28;20036;-83
2022/01/18 08:54:03;;;;;;;41.10;13.68;;;;;;;;;;5075967;28;20063;-83
2022/01/18 08:56:29;;;;;;;39.42;13.65;;;;;;;;;;5069599;28;20327;-83
2022/01/18 08:58:55;;;;;;;39.45;13.82;;;;;;;;;;5078078;28;20084;-83
2022/01/18 09:01:21;;;;;;;43.85;14.52;;;;;;;;;;5075260;28;20108;-83
2022/01/18 09:03:46;;;;;;;37.67;13.55;;;;;;;;;;5084942;28;20025;-83
2022/01/18 09:06:14;;;;;;;33.58;12.98;;;;;;;;;;5058683;28;20017;-83
2022/01/18 09:08:41;;;;;;;39.55;13.63;;;;;;;;;;5065190;28;20209;-83
2022/01/18 09:11:07;;;;;;;40.45;13.82;;;;;;;;;;5084476;28;20242;-83
2022/01/18 09:13:36;;;;;;;36.47;12.93;;;;;;;;;;5085605;28;20225;-83
2022/01/18 09:16:02;;;;;;;32.00;13.02;;;;;;;;;;5080207;28;20051;-83
2022/01/18 09:18:28;;;;;;;44.50;14.10;;;;;;;;;;5054037;28;20025;-83
2022/01/18 09:20:54;;;;;;;29.92;12.68;;;;;;;;;;5075783;28;20092;-84
2022/01/18 09:23:19;;;;;;;30.17;12.30;;;;;;;;;;5087666;28;20025;-84
2022/01/18 09:25:45;;;;;;;31.75;12.45;;;;;;;;;;5078597;28;20238;-83
2022/01/18 09:28:10;;;;;;;33.55;12.70;;;;;;;;;;5082966;28;20043;-84
2022/01/18 09:30:38;;;;;;;28.42;12.57;;;;;;;;;;5079858;28;20032;-87
2022/01/18 09:33:06;;;;;;;33.80;12.45;;;;;;;;;;5057826;28;20035;-85
2022/01/18 09:35:33;;;;;;;28.92;11.77;;;;;;;;;;5080580;28;20024;-83
2022/01/18 09:37:59;;;;;;;25.25;11.50;;;;;;;;;;5078814;28;20013;-83
2022/01/18 09:40:25;;;;;;;28.85;10.27;;;;;;;;;;5083755;28;20262;-84
2022/01/18 09:42:56;;;;;;;27.75;9.23;;;;;;;;;;5083804;28;20041;-84
2022/01/18 09:45:23;;;;;;;24.65;9.45;;;;;;;;;;5081169;28;20030;-83
2022/01/18 09:47:50;;;;;;;24.35;9.57;;;;;;;;;;5074571;28;20036;-85
2022/01/18 09:50:25;;;;;;;20.42;6.93;;;;;;;;;;5064493;28;20315;-84
2022/01/18 09:52:54;;;;;;;18.02;7.85;;;;;;;;;;5081085;28;20028;-84
2022/01/18 09:55:22;;;;;;;20.75;8.07;;;;;;;;;;5082219;28;20044;-84
2022/01/18 09:57:48;;;;;;;23.20;9.38;;;;;;;;;;5088446;28;20028;-84
2022/01/18 10:00:14;;;;;;;25.75;9.25;;;;;;;;;;5084696;28;20058;-82
2022/01/18 10:02:39;;;;;;;18.38;9.30;;;;;;;;;;5073993;28;20028;-84
2022/01/18 10:05:28;;;;;;;22.23;8.57;;;;;;;;;;5060799;28;20020;-83
2022/01/18 10:07:56;;;;;;;22.52;8.93;;;;;;;;;;5081522;28;20202;-84
2022/01/18 10:10:37;;;;;;;25.27;8.98;;;;;;;;;;5094969;28;20028;-84
2022/01/18 10:13:03;;;;;;;19.15;8.00;;;;;;;;;;5074585;28;20051;-83
2022/01/18 10:15:29;;;;;;;19.83;8.55;;;;;;;;;;5081781;28;20339;-84
2022/01/18 10:18:07;;;;;;;17.75;8.63;;;;;;;;;;5078107;28;20021;-84
2022/01/18 10:20:47;;;;;;;20.52;8.20;;;;;;;;;;5077907;28;20234;-81
2022/01/18 10:23:23;;;;;;;25.33;9.25;;;;;;;;;;5086066;28;20024;-78
2022/01/18 10:25:49;;;;;;;18.27;8.40;;;;;;;;;;5077655;28;20104;-79
2022/01/18 10:28:34;;;;;;;22.65;8.23;;;;;;;;;;5080412;28;20036;-81
2022/01/18 10:31:05;;;;;;;22.90;8.73;;;;;;;;;;5072313;28;20029;-80
2022/01/18 10:33:36;;;;;;;19.30;8.60;;;;;;;;;;5080797;28;20406;-80
2022/01/18 10:36:14;;;;;;;27.55;7.82;;;;;;;;;;5078325;28;20338;-80
2022/01/18 10:38:43;;;;;;;18.48;7.43;;;;;;;;;;5078638;28;20347;-80
2022/01/18 10:41:32;;;;;;;19.55;7.75;;;;;;;;;;5068852;28;20044;-80
2022/01/18 10:44:13;;;;;;;23.73;8.70;;;;;;;;;;5078334;28;20056;-81
2022/01/18 10:46:54;;;;;;;20.15;7.65;;;;;;;;;;5070581;28;20090;-80
2022/01/18 10:49:35;;;;;;;18.13;7.43;;;;;;;;;;5075057;28;20035;-80
2022/01/18 10:52:10;;;;;;;19.75;7.47;;;;;;;;;;5072517;28;20028;-81
2022/01/18 10:54:47;;;;;;;18.92;8.32;;;;;;;;;;5077765;28;20035;-82
2022/01/18 10:57:18;;;;;;;21.35;8.32;;;;;;;;;;5067690;28;20143;-81
2022/01/18 10:59:43;;;;;;;20.02;8.10;;;;;;;;;;5085883;28;20028;-81
2022/01/18 11:02:19;;;;;;;20.77;8.68;;;;;;;;;;5076779;28;20360;-81
2022/01/18 11:04:49;;;;;;;19.73;7.90;;;;;;;;;;5068588;28;20089;-79
2022/01/18 11:07:18;;;;;;;20.33;7.80;;;;;;;;;;5071998;28;20035;-79
2022/01/18 11:09:44;;;;;;;16.75;6.78;;;;;;;;;;5076189;28;20025;-86
2022/01/18 11:12:10;;;;;;;15.45;7.10;;;;;;;;;;5079934;28;20434;-79
2022/01/18 11:14:39;;;;;;;16.63;7.90;;;;;;;;;;5081931;28;20067;-81
2022/01/18 11:17:07;;;;;;;16.98;7.00;;;;;;;;;;5062212;28;20044;-80
2022/01/18 11:19:37;;;;;;;18.55;7.13;;;;;;;;;;5072863;28;20078;-78
2022/01/18 11:22:10;;;;;;;11.27;4.63;;;;;;;;;;5081620;28;20024;-82
2022/01/18 11:24:37;;;;;;;12.43;4.88;;;;;;;;;;5077682;28;20024;-80
2022/01/18 11:27:07;;;;;;;13.88;4.65;;;;;;;;;;5073961;28;20040;-79
2022/01/18 11:29:34;;;;;;;12.25;4.32;;;;;;;;;;5075379;28;20020;-79
2022/01/18 11:32:01;;;;;;;8.85;4.10;;;;;;;;;;5071561;28;20035;-82
2022/01/18 11:34:49;;;;;;;9.25;3.88;;;;;;;;;;5073704;28;20082;-87
2022/01/18 11:37:42;;;;;;;10.02;3.50;;;;;;;;;;5086971;28;20028;-85
2022/01/18 11:40:11;;;;;;;7.93;4.00;;;;;;;;;;5078661;28;20017;-87
2022/01/18 11:42:57;;;;;;;10.05;5.50;;;;;;;;;;5086580;28;20043;-79
2022/01/18 11:45:25;;;;;;;7.10;3.10;;;;;;;;;;5081500;28;20032;-80
2022/01/18 11:48:13;;;;;;;11.30;4.70;;;;;;;;;;5088377;28;20090;-80
2022/01/18 11:51:00;;;;;;;5.55;2.58;;;;;;;;;;5081870;28;20035;-79
2022/01/18 11:56:07;;;;;;;8.27;3.38;;;;;;;;;;5085962;28;20078;-79
2022/01/18 11:58:33;;;;;;;7.93;3.80;;;;;;;;;;5081265;28;20044;-81
2022/01/18 12:01:00;;;;;;;10.52;5.22;;;;;;;;;;5090285;28;20067;-79
2022/01/18 12:03:48;;;;;;;8.05;4.00;;;;;;;;;;5081311;28;20024;-82
2022/01/18 12:06:14;;;;;;;9.52;3.92;;;;;;;;;;5074582;28;20062;-80
2022/01/18 12:08:42;;;;;;;11.13;4.75;;;;;;;;;;5081520;28;20032;-80
2022/01/18 12:11:25;;;;;;;28.70;15.43;;;;;;;;;;5087590;28;20049;-78
2022/01/18 12:13:59;;;;;;;13.93;6.13;;;;;;;;;;5076007;28;20035;-78
2022/01/18 12:16:29;;;;;;;27.40;14.40;;;;;;;;;;5080663;28;20323;-77
2022/01/18 12:18:59;;;;;;;22.95;11.20;;;;;;;;;;5080935;28;20075;-77
2022/01/18 12:21:27;;;;;;;14.48;6.55;;;;;;;;;;5080603;28;20062;-77
2022/01/18 12:23:56;;;;;;;83.63;35.42;;;;;;;;;;5080704;28;20032;-77
2022/01/18 12:26:43;;;;;;;49.65;25.90;;;;;;;;;;5087222;28;20025;-80
2022/01/18 12:32:06;;;;;;;10.82;5.03;;;;;;;;;;5074851;28;20104;-79
2022/01/18 12:34:45;;;;;;;7.95;3.50;;;;;;;;;;5080796;28;20193;-79
2022/01/18 12:37:11;;;;;;;7.93;3.80;;;;;;;;;;5080358;28;20017;-78
2022/01/18 12:45:42;;;;;;;11.63;3.70;;;;;;;;;;5058126;28;20365;-78
2022/01/18 12:48:13;;;;;;;9.07;3.70;;;;;;;;;;5033847;28;20052;-78
2022/01/18 12:50:48;;;;;;;9.00;3.83;;;;;;;;;;5080569;28;20027;-78
2022/01/18 12:53:20;;;;;;;8.95;3.88;;;;;;;;;;5074560;28;20028;-78
2022/01/18 12:55:55;;;;;;;9.68;3.95;;;;;;;;;;5080470;28;20033;-79
2022/01/18 12:58:34;;;;;;;8.15;3.50;;;;;;;;;;5081387;28;20028;-77
2022/01/18 13:01:14;;;;;;;9.63;3.95;;;;;;;;;;5094295;28;20120;-79
2022/01/18 13:03:46;;;;;;;8.93;3.97;;;;;;;;;;5085103;28;20044;-78
2022/01/18 13:06:17;;;;;;;8.13;3.20;;;;;;;;;;5085766;28;20081;-78
2022/01/18 13:08:49;;;;;;;11.00;3.88;;;;;;;;;;5093229;28;20055;-78
2022/01/18 13:11:18;;;;;;;9.00;4.00;;;;;;;;;;5080592;28;20083;-79
2022/01/18 13:13:52;;;;;;;8.18;3.60;;;;;;;;;;5074138;28;20059;-80
2022/01/18 13:26:54;;;;;;;8.18;3.55;;;;;;;;;;5086646;28;20016;-79
2022/01/18 13:29:23;;;;;;;7.10;3.05;;;;;;;;;;5074009;28;20020;-78
2022/01/18 13:32:12;;;;;;;6.28;3.03;;;;;;;;;;5073694;28;20035;-78
2022/01/18 13:34:39;;;;;;;6.50;3.20;;;;;;;;;;5083594;28;20261;-78
2022/01/18 13:37:08;;;;;;;9.15;3.75;;;;;;;;;;5080121;28;20131;-78
2022/01/18 13:39:44;;;;;;;8.07;3.20;;;;;;;;;;5080170;28;20642;-79
2022/01/18 13:42:11;;;;;;;7.78;3.60;;;;;;;;;;5080106;28;20040;-79
2022/01/18 13:44:37;;;;;;;10.05;3.60;;;;;;;;;;5080131;28;20028;-79
2022/01/18 13:47:13;;;;;;;7.03;3.50;;;;;;;;;;5079940;28;20035;-77
2022/01/18 13:49:38;;;;;;;6.50;3.30;;;;;;;;;;5080228;28;20328;-77
2022/01/18 13:52:09;;;;;;;7.18;3.08;;;;;;;;;;5079730;28;20040;-77
2022/01/18 13:54:43;;;;;;;6.25;3.00;;;;;;;;;;5079198;28;20035;-75
2022/01/18 13:57:09;;;;;;;6.93;3.58;;;;;;;;;;5083712;28;20025;-77
2022/01/18 13:59:34;;;;;;;8.23;3.58;;;;;;;;;;5083491;28;20024;-77
2022/01/18 14:02:09;;;;;;;7.63;3.47;;;;;;;;;;5082996;28;20213;-77
2022/01/18 14:04:35;;;;;;;9.73;3.47;;;;;;;;;;5083316;28;20020;-77
2022/01/18 14:07:03;;;;;;;8.40;3.58;;;;;;;;;;5083194;28;20021;-76
2022/01/18 14:09:28;;;;;;;5.38;2.63;;;;;;;;;;5071911;28;20044;-77
2022/01/18 14:11:55;;;;;;;4.63;2.58;;;;;;;;;;5083188;28;20100;-76
2022/01/18 14:14:24;;;;;;;7.80;3.10;;;;;;;;;;5083352;28;20054;-77
2022/01/18 14:16:50;;;;;;;5.45;2.80;;;;;;;;;;5083131;28;20020;-77
2022/01/18 14:19:39;;;;;;;8.15;3.20;;;;;;;;;;5082813;28;20250;-76
2022/01/18 14:22:21;;;;;;;6.95;3.10;;;;;;;;;;5077743;28;20224;-78
2022/01/18 14:24:48;;;;;;;6.95;3.10;;;;;;;;;;5065308;28;20076;-77
2022/01/18 14:27:20;;;;;;;4.75;2.45;;;;;;;;;;5076435;28;20039;-78
2022/01/18 14:29:51;;;;;;;6.38;2.92;;;;;;;;;;5083075;28;20097;-76
2022/01/18 14:32:33;;;;;;;6.90;2.63;;;;;;;;;;5082951;28;20220;-77
2022/01/18 14:35:06;;;;;;;6.63;2.78;;;;;;;;;;5083166;28;20116;-77
2022/01/18 14:37:48;;;;;;;7.22;3.03;;;;;;;;;;5089613;28;20012;-77
2022/01/18 14:40:27;;;;;;;7.07;3.08;;;;;;;;;;5078206;28;20021;-77
2022/01/18 14:42:59;;;;;;;6.38;2.80;;;;;;;;;;5082952;28;20095;-76
2022/01/18 14:45:39;;;;;;;6.15;2.85;;;;;;;;;;5086546;28;20053;-76
2022/01/18 14:48:09;;;;;;;8.38;3.22;;;;;;;;;;5083800;28;20017;-77
2022/01/18 14:50:36;;;;;;;5.85;2.90;;;;;;;;;;5082469;28;20261;-77
2022/01/18 14:53:02;;;;;;;8.98;2.70;;;;;;;;;;5082288;28;20258;-77
2022/01/18 14:55:27;;;;;;;9.05;3.10;;;;;;;;;;5082452;28;20079;-77
2022/01/18 14:57:54;;;;;;;9.10;2.60;;;;;;;;;;5082574;28;20062;-77
2022/01/18 15:00:21;;;;;;;6.85;2.88;;;;;;;;;;5082501;28;20020;-78
2022/01/18 15:02:47;;;;;;;5.68;2.35;;;;;;;;;;5082239;28;20370;-77
2022/01/18 15:05:12;;;;;;;6.57;2.70;;;;;;;;;;5082180;28;20040;-77
2022/01/18 15:07:39;;;;;;;7.50;2.95;;;;;;;;;;5081980;28;20020;-77
2022/01/18 15:10:07;;;;;;;5.80;2.63;;;;;;;;;;5088912;28;20286;-78
2022/01/18 15:12:37;;;;;;;6.20;2.58;;;;;;;;;;5063922;28;20335;-77
2022/01/18 15:15:04;;;;;;;7.63;2.65;;;;;;;;;;5082289;28;20099;-77
2022/01/18 15:17:29;;;;;;;5.75;2.78;;;;;;;;;;5082021;28;20021;-76
2022/01/18 15:19:54;;;;;;;10.52;3.30;;;;;;;;;;5082357;28;20028;-77
2022/01/18 15:22:21;;;;;;;6.13;2.78;;;;;;;;;;5081502;28;20024;-77
2022/01/18 15:24:46;;;;;;;5.03;2.38;;;;;;;;;;5081901;28;20036;-76
2022/01/18 15:27:12;;;;;;;6.40;3.03;;;;;;;;;;5082076;28;20064;-77
2022/01/18 15:29:37;;;;;;;7.90;3.00;;;;;;;;;;5081947;28;20363;-77
2022/01/18 15:32:05;;;;;;;8.57;3.20;;;;;;;;;;5081804;28;20224;-77
2022/01/18 15:34:31;;;;;;;7.63;3.00;;;;;;;;;;5081641;28;20032;-77
2022/01/18 15:36:56;;;;;;;5.78;2.80;;;;;;;;;;5082700;28;20028;-77
2022/01/18 15:39:22;;;;;;;6.40;3.03;;;;;;;;;;5087667;28;20426;-77
2022/01/18 15:41:48;;;;;;;7.07;2.78;;;;;;;;;;5086956;28;20054;-77
2022/01/18 15:44:14;;;;;;;5.55;2.58;;;;;;;;;;5074284;28;20240;-75
2022/01/18 15:46:40;;;;;;;6.05;2.88;;;;;;;;;;5069860;28;20056;-76
2022/01/18 15:49:06;;;;;;;8.38;2.63;;;;;;;;;;5073324;28;20040;-76
2022/01/18 15:51:32;;;;;;;7.25;2.67;;;;;;;;;;5051705;28;20036;-77
2022/01/18 15:53:59;;;;;;;7.50;2.95;;;;;;;;;;5076376;28;20051;-76
2022/01/18 15:56:24;;;;;;;9.63;3.60;;;;;;;;;;5074551;28;20028;-76
2022/01/18 15:58:50;;;;;;;6.95;3.28;;;;;;;;;;5071411;28;20082;-77
2022/01/18 16:01:15;;;;;;;8.23;3.90;;;;;;;;;;5083861;28;20100;-77
2022/01/18 16:03:40;;;;;;;7.80;3.30;;;;;;;;;;5093559;28;20087;-76
2022/01/18 16:06:06;;;;;;;7.50;3.70;;;;;;;;;;5076778;28;20024;-75
2022/01/18 16:08:33;;;;;;;11.10;3.50;;;;;;;;;;5071519;28;20029;-78
2022/01/18 16:11:00;;;;;;;8.25;3.55;;;;;;;;;;5072504;28;20032;-77
2022/01/18 16:13:25;;;;;;;11.60;3.97;;;;;;;;;;5069478;28;20303;-76
2022/01/18 16:15:52;;;;;;;7.20;3.50;;;;;;;;;;5073416;28;20032;-76
2022/01/18 16:18:17;;;;;;;8.50;4.10;;;;;;;;;;5078474;28;20039;-75
2022/01/18 16:20:42;;;;;;;8.98;4.13;;;;;;;;;;5080533;28;20056;-76